AirNav   Air Wisconsin Up To $57,000 Bonus
 
 1185 users online  

17VA Belleharbour Heliport
Suffolk, Virginia, USA

GOING TO SUFFOLK?


FAA INFORMATION EFFECTIVE 25 MARCH 2021

Location

FAA Identifier: 17VA
Lat/Long: 36-51-47.4600N 076-27-01.2200W
36-51.791000N 076-27.020333W
36.8631833,-76.4503389
(estimated)
Elevation: 20 ft. / 6 m (estimated)
From city: 10 miles NE of SUFFOLK, VA
Time zone: UTC -4 (UTC -5 during Standard Time)
Zip code: 23435

Heliport Operations

Heliport use: Private use. Permission required prior to landing
Activation date: 08/2017
Control tower: no
ARTCC: WASHINGTON CENTER
FSS: LEESBURG FLIGHT SERVICE STATION
Attendance: UNATNDD
Segmented circle: no

Heliport Communications

WX AWOS-3PT at PVG (5 nm S): 118.375 (757-465-2175)
WX ASOS at ORF (12 nm E): PHONE 757-460-9348
WX AWOS-3 at SFQ (13 nm SW): 119.375 (757-934-3942)
WX AWOS-3 at CPK (13 nm SE): 123.675 (757-204-4290)
WX ASOS at PHF (16 nm N): PHONE 757-874-3682

Nearby radio navigation aids

VOR radial/distance  VOR name  Freq  Var
ORFr269/12.1NORFOLK VORTAC116.9007W
FKNr081/28.4FRANKLIN VORTAC110.6009W
CVIr044/35.7COFIELD VORTAC114.6009W
CCVr227/36.2CAPE CHARLES VORTAC112.2010W
HCMr167/37.3HARCUM VORTAC108.8007W
ECGr347/38.7ELIZABETH CITY VOR/DME112.5007W

 
NDB name  Hdg/Dist  Freq  Var  ID
INGLE287/9.732909WOR --- .-.
WAKEFIELD116/27.427411WAKQ .- -.- --.-
WOODVILLE358/36.825410WLLW .-.. .-.. .--

Heliport Services

Runway Information

Helipad H1

Dimensions: 40 x 40 ft. / 12 x 12 m
Surface: concrete
Runway edge lights: PERI
Latitude: 36-51.791000N
Longitude: 076-27.020333W
Elevation: 20.0 ft.
Traffic pattern: leftleft

Heliport Ownership and Management from official FAA records

Ownership: Privately-owned
Owner: SENTARA HEALTHCARE
C/O BELLEHARBOUR PROPERTIES LLC, 3920A BRIDGE RD
SUFFOLK, VA 23435
Phone 757-594-1011
Manager: BENJAMIN SUTHERLAND
835 GLENROCK RD, SUITE 170
NORFOLK, VA 23502
Phone 757-252-3102

Additional Remarks

FOR CD CTC WASHINGTON ARTCC AT 703-771-3587.

Instrument Procedures

There are no published instrument procedures at 17VA.

Some nearby airports with instrument procedures:

KPVG - Hampton RoadsExecutive Airport (5 nm S)
KNGU - Norfolk Naval Station (Chambers Field) (9 nm NE)
KORF - Norfolk International Airport (12 nm E)
KSFQ - SuffolkExecutive Airport (13 nm SW)
KCPK - Chesapeake Regional Airport (13 nm SE)
KLFI - Langley Air Force Base (14 nm N)
KPHF - Newport News/Williamsburg International Airport (16 nm N)
KFAF - Felker Army Airfield (18 nm NW)
 
Loc | Ops | Rwys | IFR | FBO | Links
Com | Nav | Svcs | Stats | Notes
Aerial photo
No photo
 
Airport distance calculator
Flying to Belleharbour Heliport? Find the distance to fly.

From to 17VA

Sunrise and sunset
Times for 18-Apr-2021
 Local
(UTC-4)
 Zulu
(UTC)
Morning civil twilight06:0210:02
Sunrise06:2910:29
Sunset19:4223:42
Evening civil twilight20:0900:09

Current date and time
Zulu (UTC)  18-Apr-2021 21:47:18
Local (UTC-4)  18-Apr-2021 17:47:18
 
METAR
KPVG 
5nm S 
182056Z AUTO 12009KT 10SM FEW060 SCT095 19/07 A2986 RMK AO2 SLP114 6//// T01940072 55003 PNO $
KNGU 
9nm E 
182059Z 10005KT 10SM SCT060 BKN210 BKN300 19/05 A2987 RMK AO2 SLP115 T01890050 55006 $
KORF 
12nm E 
182051Z 10007KT 10SM CLR 19/06 A2986 RMK AO2 SLP110 T01940061 55006
KLFI 
13nm N 
182056Z AUTO 11008KT 10SM BKN095 17/07 A2986 RMK AO2 SLP118 T01680074 $
KSFQ 
13nm SW 
182135Z AUTO 09006KT 10SM BKN080 OVC100 19/08 A2987 RMK AO2 T01860083
KCPK 
13nm SE 
182135Z AUTO 11008KT 10SM SCT070 18/06 A2987 RMK AO2 T01750058
KPHF 
16nm N 
182054Z 09009KT 10SM SCT095 17/07 A2986 RMK AO2 SLP112 T01670072 55005
KFAF 
17nm NW 
182056Z AUTO 09006KT 10SM SCT080 BKN095 18/08 A2983 RMK AO2 SLP105 T01830083 $
KNFE 
18nm SE 
182056Z AUTO 09006KT 10SM BKN065 OVC080 17/06 A2987 RMK AO2 SLP116 T01670061 55003
TAF
KNGU 
9nm E 
1815/1915 02008KT 9999 FEW015 SCT040 QNH2991INS FM182300 12007G12KT 9999 SCT025 BKN050 QNH2987INS BECMG 1900/1902 12007KT 9999 SKC QNH2988INS BECMG 1910/1912 VRB06KT 9999 VCSH BKN100 QNH2985INS BECMG 1912/1914 01010G20KT 4800 SHRA BKN035 OVC100 QNH2982INS TEMPO 1912/1915 VRB10G20KT 3600 -TSRA BR BKN035CB T17/1819Z T13/1908Z FN00231
KORF 
12nm E 
181740Z 1818/1918 06009KT P6SM SCT050 FM182200 VRB05KT P6SM BKN080 FM191400 04004KT P6SM BKN060 FM191500 01005KT P6SM SCT025 BKN035
KPHF 
16nm N 
181740Z 1818/1918 04005KT P6SM SCT050 BKN060 FM182300 12008KT P6SM BKN060 FM190800 00000KT P6SM BKN050 FM191400 35004KT P6SM BKN035
NOTAMs
Click for the latest NOTAMs
NOTAMs are issued by the DoD/FAA and will open in a separate window not controlled by AirNav.

 

 
 

Would you like to see your business listed on this page?

 If your business provides an interesting product or service to pilots, flight crews, aircraft, or users of the Belleharbour Heliport, you should consider listing it here.  To start the listing process, click on the button below
 
Add a business
 

Other Pages about Belleharbour Heliport

Update a link
 
Copyright © AirNav, LLC. All rights reserved. Privacy Policy  Contact